Time;durP1;ratioP1;P1;durP2;ratioP2;P2;SDS_P1;SDS_P2;PMS_P1;PMS_P2;Temp;Humidity;BMP_temperature;BMP_pressure;BME280_temperature;BME280_humidity;BME280_pressure;Samples;Min_cycle;Max_cycle;Signal;HPM_P1;HPM_P2
2023/04/26 00:02:16;;;;;;;8.70;5.20;;;;;;;12.77;53.68;99521.23;108414;1254;66294;-54
2023/04/26 00:04:45;;;;;;;10.10;5.50;;;;;;;12.73;53.74;99517.95;108474;1256;60016;-54
2023/04/26 00:07:14;;;;;;;9.00;5.10;;;;;;;12.70;53.92;99520.21;108497;1253;58603;-54
2023/04/26 00:09:43;;;;;;;8.70;5.50;;;;;;;12.66;54.11;99524.29;108559;1251;67404;-54
2023/04/26 00:12:10;;;;;;;8.30;5.50;;;;;;;12.64;54.15;99527.17;108432;1251;71972;-54
2023/04/26 00:14:37;;;;;;;9.30;5.30;;;;;;;12.60;54.29;99522.44;108487;1253;65103;-54
2023/04/26 00:17:04;;;;;;;8.10;5.30;;;;;;;12.56;54.43;99527.77;108498;1253;58347;-55
2023/04/26 00:19:31;;;;;;;9.80;5.60;;;;;;;12.52;54.60;99530.67;108449;1252;59233;-55
2023/04/26 00:21:58;;;;;;;12.30;5.40;;;;;;;12.50;54.87;99536.38;108566;1251;67954;-55
2023/04/26 00:24:25;;;;;;;8.30;5.00;;;;;;;12.48;55.01;99534.75;108456;1252;63029;-54
2023/04/26 00:26:56;;;;;;;9.50;5.40;;;;;;;12.51;55.10;99534.63;108549;1253;66608;-55
2023/04/26 00:29:22;;;;;;;9.80;4.70;;;;;;;12.58;55.18;99533.58;108492;1253;62104;-54
2023/04/26 00:31:49;;;;;;;7.70;4.60;;;;;;;12.65;55.23;99528.61;108481;1252;60301;-54
2023/04/26 00:34:16;;;;;;;7.40;4.80;;;;;;;12.75;55.23;99528.52;108492;1253;67582;-55
2023/04/26 00:36:43;;;;;;;9.10;5.10;;;;;;;12.85;55.04;99529.46;108505;1253;63968;-55
2023/04/26 00:39:10;;;;;;;8.40;5.00;;;;;;;12.94;54.87;99528.83;108410;1252;66175;-54
2023/04/26 00:41:37;;;;;;;8.20;4.20;;;;;;;13.01;54.65;99529.20;108525;1252;58556;-55
2023/04/26 00:44:04;;;;;;;8.30;4.90;;;;;;;13.05;54.48;99529.66;108405;1252;59034;-55
2023/04/26 00:46:31;;;;;;;8.90;4.80;;;;;;;13.07;54.47;99530.66;108160;1252;231246;-54
2023/04/26 01:01:30;;;;;;;10.20;5.50;;;;;;;13.23;54.31;99524.92;102712;1286;604779;-57
2023/04/26 01:03:58;;;;;;;9.10;5.10;;;;;;;13.56;53.52;99529.27;104060;1265;103476;-54
2023/04/26 01:06:25;;;;;;;9.90;5.20;;;;;;;13.53;53.82;99530.67;104242;1267;59256;-54
2023/04/26 01:08:53;;;;;;;9.80;5.70;;;;;;;13.46;54.07;99529.31;107415;1270;65683;-54
2023/04/26 01:11:21;;;;;;;7.80;4.70;;;;;;;13.38;54.37;99528.14;107575;1266;63712;-54
2023/04/26 01:13:48;;;;;;;8.10;4.90;;;;;;;13.34;54.53;99526.48;107503;1267;66192;-55
2023/04/26 01:16:15;;;;;;;8.20;4.80;;;;;;;13.31;54.71;99524.30;107718;1266;58686;-55
2023/04/26 01:18:42;;;;;;;8.10;4.70;;;;;;;13.35;54.98;99524.65;107596;1272;59185;-55
2023/04/26 01:21:10;;;;;;;7.50;5.00;;;;;;;13.42;55.27;99527.09;107597;1270;66578;-54
2023/04/26 01:23:37;;;;;;;11.00;5.20;;;;;;;13.47;55.34;99527.00;107595;1266;65377;-54
2023/04/26 01:26:04;;;;;;;8.40;5.20;;;;;;;13.52;55.56;99526.03;107618;1268;65762;-54
2023/04/26 01:28:33;;;;;;;8.10;4.40;;;;;;;13.54;55.72;99520.94;107571;1270;59387;-55
2023/04/26 01:31:03;;;;;;;8.60;5.60;;;;;;;13.57;55.95;99519.31;107485;1271;58085;-54
2023/04/26 01:33:30;;;;;;;8.90;5.30;;;;;;;13.58;56.21;99518.36;107748;1269;66078;-55
2023/04/26 01:35:57;;;;;;;10.30;5.10;;;;;;;13.57;56.53;99515.09;107719;1266;62909;-55
2023/04/26 01:38:24;;;;;;;13.40;5.50;;;;;;;13.54;57.07;99514.42;107626;1269;66256;-53
2023/04/26 01:40:53;;;;;;;7.50;4.80;;;;;;;13.56;57.59;99516.95;107581;1266;59246;-53
2023/04/26 01:43:21;;;;;;;6.50;4.30;;;;;;;13.61;58.33;99517.88;107873;1266;58138;-53
2023/04/26 01:45:48;;;;;;;7.80;5.00;;;;;;;13.63;58.73;99516.76;107883;1266;66237;-53
2023/04/26 01:48:28;;;;;;;12.50;5.30;;;;;;;13.63;59.11;99513.95;107892;1266;65115;-53
2023/04/26 01:53:21;;;;;;;;;;;;;;;;;;;;;
2023/04/26 01:56:49;;;;;;;8.20;5.10;;;;;;;13.43;60.26;99504.75;105057;1284;605306;-54
2023/04/26 01:59:16;;;;;;;7.40;4.90;;;;;;;13.54;60.35;99499.04;104400;1267;59392;-54
2023/04/26 02:01:44;;;;;;;9.20;5.00;;;;;;;13.55;60.49;99497.84;105287;1272;59389;-54
2023/04/26 02:04:11;;;;;;;7.60;4.60;;;;;;;13.57;60.81;99497.58;104564;1271;64690;-54
2023/04/26 02:06:41;;;;;;;8.40;5.50;;;;;;;13.58;61.02;99493.11;104694;1266;62840;-53
2023/04/26 02:09:08;;;;;;;8.60;5.60;;;;;;;13.58;61.16;99491.08;105054;1264;188625;-54
2023/04/26 02:11:39;;;;;;;8.60;5.10;;;;;;;13.56;61.42;99491.03;105117;1269;59301;-53
2023/04/26 02:14:06;;;;;;;9.30;5.50;;;;;;;13.54;61.55;99492.09;104673;1269;59318;-53
2023/04/26 02:16:33;;;;;;;10.80;5.40;;;;;;;13.50;61.63;99494.80;105038;1269;64814;-54
2023/04/26 02:19:01;;;;;;;8.80;5.90;;;;;;;13.44;61.85;99493.92;105683;1268;62720;-54
2023/04/26 02:21:29;;;;;;;6.90;5.20;;;;;;;13.38;61.97;99494.73;105832;1268;65039;-53
2023/04/26 02:23:56;;;;;;;10.50;5.00;;;;;;;13.36;62.10;99492.27;104922;1264;59656;-53
2023/04/26 02:26:23;;;;;;;7.70;4.30;;;;;;;13.37;62.15;99490.79;104299;1268;59832;-53
2023/04/26 02:28:49;;;;;;;9.40;5.40;;;;;;;13.36;62.21;99487.67;104677;1269;65164;-54
2023/04/26 02:31:17;;;;;;;8.20;5.50;;;;;;;13.35;62.22;99488.52;105190;1268;61652;-53
2023/04/26 02:33:44;;;;;;;9.50;4.90;;;;;;;13.32;62.36;99489.71;105045;1267;65043;-54
2023/04/26 02:36:11;;;;;;;10.70;6.00;;;;;;;13.29;62.63;99484.70;104108;1271;59597;-54
2023/04/26 02:38:38;;;;;;;8.60;5.50;;;;;;;13.29;62.77;99481.92;104326;1266;61628;-53
2023/04/26 02:41:05;;;;;;;6.90;5.00;;;;;;;13.29;63.03;99477.73;104289;1267;65504;-53
2023/04/26 02:43:32;;;;;;;8.50;4.90;;;;;;;13.29;63.06;99477.89;104889;1265;63106;-53
2023/04/26 02:46:00;;;;;;;10.60;5.80;;;;;;;13.30;63.02;99477.23;104279;1267;64759;-54
2023/04/26 02:48:27;;;;;;;9.00;4.90;;;;;;;13.32;63.08;99478.23;104180;1267;59749;-53
2023/04/26 02:50:54;;;;;;;8.90;5.40;;;;;;;13.33;63.07;99473.40;105695;1264;59683;-53
2023/04/26 02:53:20;;;;;;;10.70;5.10;;;;;;;13.34;62.94;99476.58;105052;1265;65249;-53
2023/04/26 02:55:48;;;;;;;7.80;5.50;;;;;;;13.32;62.85;99476.42;105032;1266;62425;-53
2023/04/26 02:58:14;;;;;;;7.10;5.20;;;;;;;13.30;62.80;99476.34;105089;1263;65002;-53
2023/04/26 03:00:46;;;;;;;8.50;5.90;;;;;;;13.28;62.94;99475.84;104586;1263;59644;-51
2023/04/26 03:03:13;;;;;;;8.70;5.70;;;;;;;13.27;63.14;99474.33;104564;1265;59693;-55
2023/04/26 03:05:41;;;;;;;8.10;5.10;;;;;;;13.29;63.13;99470.41;105471;1262;65384;-53
2023/04/26 03:08:08;;;;;;;10.70;5.50;;;;;;;13.35;62.82;99471.20;105382;1266;62866;-55
2023/04/26 03:10:36;;;;;;;8.10;5.00;;;;;;;13.41;62.63;99470.45;104492;1270;64851;-55
2023/04/26 03:13:03;;;;;;;7.80;5.50;;;;;;;13.47;62.79;99476.86;105616;1267;59549;-54
2023/04/26 03:15:30;;;;;;;8.40;5.60;;;;;;;13.51;62.89;99474.84;104876;1266;59532;-54
2023/04/26 03:17:58;;;;;;;13.20;6.20;;;;;;;13.52;63.00;99473.10;104479;1266;65699;-53
2023/04/26 03:20:26;;;;;;;8.30;5.40;;;;;;;13.56;63.04;99473.25;105804;1265;62662;-52
2023/04/26 03:22:53;;;;;;;7.40;5.20;;;;;;;13.59;63.13;99470.85;104994;1264;65322;-51
2023/04/26 03:25:20;;;;;;;9.30;5.90;;;;;;;13.60;63.11;99474.06;104208;1265;60560;-55
2023/04/26 03:27:47;;;;;;;7.90;5.60;;;;;;;13.61;63.07;99474.20;104197;1265;59698;-55
2023/04/26 03:30:14;;;;;;;8.50;5.40;;;;;;;13.61;63.11;99476.11;105012;1267;65277;-54
2023/04/26 03:32:42;;;;;;;8.40;5.30;;;;;;;13.63;63.23;99471.95;104351;1265;62543;-55
2023/04/26 03:35:09;;;;;;;8.70;5.00;;;;;;;13.58;63.40;99469.84;104178;1265;65214;-53
2023/04/26 03:37:38;;;;;;;8.50;5.60;;;;;;;13.55;63.73;99468.21;104631;1261;59653;-55
2023/04/26 03:40:09;;;;;;;9.20;6.10;;;;;;;13.55;63.82;99463.65;104497;1265;59909;-55
2023/04/26 03:42:36;;;;;;;9.50;5.50;;;;;;;13.59;63.81;99459.73;104365;1266;65728;-54
2023/04/26 03:45:03;;;;;;;9.00;5.50;;;;;;;13.60;63.82;99460.69;104676;1266;62665;-54
2023/04/26 03:47:31;;;;;;;8.50;5.00;;;;;;;13.62;63.80;99465.36;105804;1266;73781;-54
2023/04/26 03:49:58;;;;;;;9.10;5.20;;;;;;;13.65;63.84;99473.83;105019;1274;59659;-54
2023/04/26 03:52:25;;;;;;;11.20;5.40;;;;;;;13.73;63.89;99473.38;104986;1263;59912;-53
2023/04/26 03:54:52;;;;;;;8.40;5.60;;;;;;;13.79;63.74;99469.40;106086;1261;64552;-55
2023/04/26 03:57:19;;;;;;;9.50;5.50;;;;;;;13.82;63.63;99471.21;105330;1265;62275;-55
2023/04/26 03:59:46;;;;;;;11.90;6.30;;;;;;;13.81;63.40;99467.05;106189;1266;65098;-55
2023/04/26 04:02:12;;;;;;;7.40;5.20;;;;;;;13.80;63.08;99464.38;104527;1268;59688;-55
2023/04/26 04:04:40;;;;;;;7.60;5.60;;;;;;;13.78;62.94;99462.59;104530;1261;59660;-55
2023/04/26 04:07:08;;;;;;;10.40;6.20;;;;;;;13.75;62.80;99466.13;104730;1266;65486;-53
2023/04/26 04:09:35;;;;;;;8.10;5.00;;;;;;;13.74;62.68;99464.20;105596;1265;62420;-53
2023/04/26 04:12:02;;;;;;;7.60;4.80;;;;;;;13.77;62.54;99460.90;104830;1266;64811;-54
2023/04/26 04:14:30;;;;;;;7.40;4.70;;;;;;;13.83;62.57;99464.50;104823;1267;59721;-53
2023/04/26 04:16:58;;;;;;;8.00;4.90;;;;;;;13.87;62.52;99461.96;104450;1260;59721;-54
2023/04/26 04:19:25;;;;;;;11.10;6.00;;;;;;;13.90;62.64;99459.05;104997;1266;65095;-54
2023/04/26 04:21:53;;;;;;;7.30;5.30;;;;;;;13.91;62.58;99456.44;107257;1261;62735;-54
2023/04/26 04:24:19;;;;;;;8.90;5.40;;;;;;;13.92;62.54;99457.23;105974;1267;65133;-54
2023/04/26 04:26:46;;;;;;;9.30;6.10;;;;;;;13.94;62.46;99457.13;106188;1261;59666;-54
2023/04/26 04:29:14;;;;;;;7.80;5.10;;;;;;;13.96;62.46;99459.92;104365;1266;59757;-54
2023/04/26 04:31:42;;;;;;;7.90;5.20;;;;;;;14.00;62.30;99459.92;104520;1265;65420;-54
2023/04/26 04:34:10;;;;;;;8.50;5.20;;;;;;;14.03;62.06;99463.61;104316;1267;63068;-54
2023/04/26 04:36:39;;;;;;;9.70;5.10;;;;;;;14.05;61.91;99463.21;104589;1264;64879;-55
2023/04/26 04:39:11;;;;;;;7.80;5.20;;;;;;;14.03;61.83;99464.48;104447;1261;59579;-54
2023/04/26 04:41:38;;;;;;;6.80;4.90;;;;;;;14.00;61.86;99465.35;104479;1261;59667;-54
2023/04/26 04:44:05;;;;;;;9.20;5.70;;;;;;;13.95;61.79;99463.37;104402;1266;65378;-54
2023/04/26 04:46:33;;;;;;;8.00;5.30;;;;;;;13.90;61.66;99468.66;107904;1254;62512;-55
2023/04/26 04:49:00;;;;;;;10.50;5.50;;;;;;;13.92;61.54;99469.75;105720;1256;63964;-55
2023/04/26 04:51:27;;;;;;;7.80;5.40;;;;;;;13.89;61.47;99468.66;108134;1256;58968;-54
2023/04/26 04:53:56;;;;;;;10.60;5.40;;;;;;;13.86;61.22;99469.95;105226;1257;60735;-54
2023/04/26 04:56:24;;;;;;;7.60;5.10;;;;;;;13.87;61.05;99474.52;108958;1254;65147;-55
2023/04/26 04:58:52;;;;;;;6.90;4.90;;;;;;;13.87;61.00;99484.20;108922;1254;62310;-55
2023/04/26 05:01:20;;;;;;;9.10;5.00;;;;;;;13.95;61.17;99487.44;108960;1254;65044;-55
2023/04/26 05:03:50;;;;;;;9.00;4.80;;;;;;;13.99;61.23;99484.82;108986;1254;59984;-55
2023/04/26 05:06:18;;;;;;;7.70;5.00;;;;;;;14.05;60.99;99485.11;108924;1254;57312;-55
2023/04/26 05:08:45;;;;;;;6.60;4.60;;;;;;;14.04;60.88;99488.39;108921;1254;65581;-55
2023/04/26 05:11:12;;;;;;;10.30;4.90;;;;;;;14.04;60.89;99488.19;108982;1254;61481;-55
2023/04/26 05:13:40;;;;;;;7.90;4.90;;;;;;;14.07;60.72;99489.97;108977;1253;65099;-55
2023/04/26 05:16:07;;;;;;;8.20;4.70;;;;;;;14.11;60.69;99490.03;108930;1259;58247;-55
2023/04/26 05:18:34;;;;;;;7.50;4.50;;;;;;;14.17;60.59;99491.38;109019;1253;59401;-55
2023/04/26 05:21:01;;;;;;;8.50;4.80;;;;;;;14.21;60.52;99487.23;108970;1253;65462;-55
2023/04/26 05:23:29;;;;;;;6.10;4.50;;;;;;;14.24;60.56;99491.49;108996;1253;61612;-55
2023/04/26 05:26:00;;;;;;;8.70;5.20;;;;;;;14.28;60.44;99490.06;106423;1258;64793;-54
2023/04/26 05:28:54;;;;;;;9.80;5.20;;;;;;;14.30;60.27;99488.96;105127;1258;59595;-55
2023/04/26 05:31:30;;;;;;;8.90;5.50;;;;;;;14.36;60.15;99487.73;106574;1254;59699;-55
2023/04/26 05:34:20;;;;;;;7.20;5.00;;;;;;;14.42;60.17;99487.20;106519;1254;65643;-55
2023/04/26 05:36:50;;;;;;;8.60;6.00;;;;;;;14.47;60.07;99485.55;105834;1254;62468;-54
2023/04/26 05:39:19;;;;;;;11.20;5.90;;;;;;;14.50;59.78;99483.68;105150;1254;64840;-55
2023/04/26 05:41:46;;;;;;;10.80;5.80;;;;;;;14.52;59.26;99480.46;105258;1257;59545;-55
2023/04/26 05:44:16;;;;;;;8.70;5.30;;;;;;;14.51;58.70;99481.30;106971;1257;59635;-54
2023/04/26 05:46:45;;;;;;;8.20;5.10;;;;;;;14.51;58.42;99479.36;105972;1254;67444;-55
2023/04/26 05:49:12;;;;;;;11.90;5.80;;;;;;;14.51;57.83;99480.42;105209;1257;62520;-54
2023/04/26 05:51:39;;;;;;;8.50;4.70;;;;;;;14.51;57.50;99482.50;105259;1256;65083;-56
2023/04/26 05:54:06;;;;;;;10.10;4.80;;;;;;;14.54;56.95;99480.80;106776;1257;59734;-54
2023/04/26 05:56:34;;;;;;;7.80;4.30;;;;;;;14.60;56.55;99487.02;104825;1254;59628;-54
2023/04/26 05:59:01;;;;;;;9.10;4.50;;;;;;;14.66;56.41;99485.02;105400;1255;65590;-55
2023/04/26 06:01:28;;;;;;;8.70;5.00;;;;;;;14.72;56.35;99485.89;106175;1258;62862;-55
2023/04/26 06:03:55;;;;;;;7.10;4.40;;;;;;;14.78;56.22;99482.17;107387;1254;64833;-55
2023/04/26 06:06:27;;;;;;;9.10;4.40;;;;;;;14.84;55.97;99481.50;105225;1253;60441;-54
2023/04/26 06:08:54;;;;;;;9.00;4.60;;;;;;;14.86;55.83;99480.20;105219;1257;60436;-54
2023/04/26 06:11:21;;;;;;;10.50;4.90;;;;;;;14.89;55.76;99485.20;107454;1253;65856;-54
2023/04/26 06:13:48;;;;;;;6.90;4.40;;;;;;;14.89;55.57;99485.55;105180;1255;62803;-56
2023/04/26 06:16:16;;;;;;;10.10;4.50;;;;;;;14.88;55.62;99481.62;105245;1258;64805;-54
2023/04/26 06:18:43;;;;;;;9.60;4.90;;;;;;;14.90;55.65;99482.65;107759;1254;59285;-54
2023/04/26 06:21:09;;;;;;;10.70;4.90;;;;;;;14.93;55.72;99482.60;105257;1253;60554;-54
2023/04/26 06:23:36;;;;;;;9.60;5.70;;;;;;;14.98;55.65;99486.08;106239;1260;65957;-54
2023/04/26 06:26:04;;;;;;;12.20;5.00;;;;;;;15.06;55.80;99486.30;105197;1254;62669;-54
2023/04/26 06:28:31;;;;;;;9.80;4.70;;;;;;;15.13;55.42;99484.11;105800;1257;73963;-55
2023/04/26 06:30:58;;;;;;;10.70;5.20;;;;;;;15.19;55.40;99483.95;106540;1254;60549;-55
2023/04/26 06:33:26;;;;;;;7.80;4.40;;;;;;;15.30;55.22;99486.35;105560;1254;60359;-55
2023/04/26 06:35:52;;;;;;;11.00;5.60;;;;;;;15.46;54.64;99487.98;105236;1257;66614;-54
2023/04/26 06:38:20;;;;;;;8.60;4.50;;;;;;;15.57;54.30;99489.01;108931;1253;71181;-54
2023/04/26 06:40:46;;;;;;;12.30;5.30;;;;;;;15.68;54.14;99491.73;108184;1253;65627;-56
2023/04/26 06:43:13;;;;;;;12.70;5.50;;;;;;;15.82;53.95;99490.85;105284;1259;60556;-54
2023/04/26 06:45:58;;;;;;;10.30;5.30;;;;;;;15.95;53.29;99497.01;106616;1255;60464;-55
2023/04/26 06:48:26;;;;;;;13.10;6.10;;;;;;;16.02;53.02;99494.70;105361;1257;66126;-55
2023/04/26 06:50:53;;;;;;;12.20;4.60;;;;;;;16.09;52.90;99495.29;105793;1254;62328;-55
2023/04/26 06:53:20;;;;;;;12.30;5.10;;;;;;;16.15;52.69;99492.48;105298;1267;64910;-55
2023/04/26 06:55:49;;;;;;;8.60;4.80;;;;;;;16.19;52.81;99491.14;105921;1253;62272;-55
2023/04/26 06:58:16;;;;;;;9.10;4.40;;;;;;;16.25;52.63;99492.08;105320;1259;61309;-54
2023/04/26 07:00:43;;;;;;;8.30;4.80;;;;;;;16.30;52.61;99490.86;105241;1254;65140;-55
2023/04/26 07:03:10;;;;;;;9.30;4.60;;;;;;;16.38;52.58;99491.41;105301;1254;62430;-55
2023/04/26 07:05:38;;;;;;;8.80;4.80;;;;;;;16.46;52.58;99485.15;108623;1254;64922;-55
2023/04/26 07:08:05;;;;;;;12.90;5.30;;;;;;;16.52;52.27;99484.99;105656;1254;60472;-55
2023/04/26 07:10:32;;;;;;;8.80;4.70;;;;;;;16.54;52.31;99476.56;105313;1254;60441;-55
2023/04/26 07:13:00;;;;;;;10.30;5.30;;;;;;;16.59;52.54;99471.06;105776;1257;66381;-54
2023/04/26 07:15:27;;;;;;;10.10;4.30;;;;;;;16.69;52.82;99469.53;105306;1253;61776;-55
2023/04/26 07:17:54;;;;;;;9.30;4.60;;;;;;;16.77;52.56;99472.38;105232;1257;66930;-56
2023/04/26 07:20:22;;;;;;;15.30;4.50;;;;;;;16.86;52.02;99476.10;105261;1257;60382;-46
2023/04/26 07:22:50;;;;;;;7.60;4.70;;;;;;;16.94;51.31;99475.71;106115;1253;60435;-46
2023/04/26 07:25:16;;;;;;;9.00;5.00;;;;;;;16.98;51.13;99469.88;105191;1257;65936;-47
2023/04/26 07:27:43;;;;;;;6.50;3.90;;;;;;;16.99;50.74;99472.86;105359;1257;62594;-48
2023/04/26 07:30:10;;;;;;;7.30;4.40;;;;;;;16.95;50.57;99478.33;105331;1254;65136;-48
2023/04/26 07:32:37;;;;;;;8.40;4.60;;;;;;;16.88;50.66;99480.83;105431;1254;60536;-46
2023/04/26 07:35:14;;;;;;;11.50;4.90;;;;;;;16.82;50.57;99481.88;105310;1254;60453;-46
2023/04/26 07:37:43;;;;;;;8.60;4.40;;;;;;;16.79;50.84;99486.85;106193;1254;66029;-45
2023/04/26 07:40:10;;;;;;;7.80;4.60;;;;;;;16.81;50.89;99487.38;106081;1254;63833;-46
2023/04/26 07:42:37;;;;;;;8.40;5.00;;;;;;;16.82;51.10;99491.28;106342;1253;64991;-47
2023/04/26 07:45:05;;;;;;;9.30;4.70;;;;;;;16.87;51.22;99496.79;106435;1253;60393;-46
2023/04/26 07:47:32;;;;;;;9.40;5.30;;;;;;;16.86;51.07;99501.64;105702;1254;60444;-47
2023/04/26 07:49:59;;;;;;;11.10;5.20;;;;;;;16.85;51.12;99504.24;107189;1254;66421;-47
2023/04/26 07:52:26;;;;;;;11.60;5.80;;;;;;;16.86;51.28;99509.98;105284;1253;63804;-47
2023/04/26 07:54:53;;;;;;;10.50;5.40;;;;;;;16.86;51.25;99510.41;105249;1254;64989;-47
2023/04/26 07:57:20;;;;;;;10.00;4.80;;;;;;;16.87;51.64;99509.61;105244;1256;60569;-48
2023/04/26 07:59:47;;;;;;;7.20;4.30;;;;;;;16.91;51.53;99511.45;106893;1253;60553;-46
2023/04/26 08:02:14;;;;;;;10.60;4.90;;;;;;;16.99;51.71;99514.15;105421;1257;66712;-47
2023/04/26 08:04:47;;;;;;;9.90;5.00;;;;;;;17.08;51.86;99515.26;106156;1254;63050;-46
2023/04/26 08:07:15;;;;;;;10.90;5.20;;;;;;;17.20;51.92;99515.80;105282;1259;64056;-47
2023/04/26 08:09:42;;;;;;;12.10;5.60;;;;;;;17.38;51.66;99513.25;105338;1257;60593;-47
2023/04/26 08:12:10;;;;;;;10.00;5.20;;;;;;;17.53;50.62;99504.48;105325;1253;60556;-47
2023/04/26 08:14:37;;;;;;;7.70;4.70;;;;;;;17.64;50.51;99502.29;105662;1254;65245;-47
2023/04/26 08:17:04;;;;;;;9.90;4.70;;;;;;;17.78;50.85;99500.34;105268;1253;62258;-47
2023/04/26 08:19:33;;;;;;;8.80;4.90;;;;;;;17.91;50.27;99503.55;105318;1253;65034;-47
2023/04/26 08:21:59;;;;;;;8.70;5.10;;;;;;;17.99;50.11;99503.90;107990;1257;59292;-48
2023/04/26 08:24:26;;;;;;;10.50;5.80;;;;;;;18.09;50.13;99506.67;105240;1254;60479;-48
2023/04/26 08:26:54;;;;;;;9.40;4.50;;;;;;;18.16;49.95;99507.48;105247;1256;66352;-47
2023/04/26 08:29:22;;;;;;;7.80;4.60;;;;;;;18.20;50.11;99505.23;106655;1254;62644;-47
2023/04/26 08:31:48;;;;;;;10.90;5.90;;;;;;;18.24;49.83;99501.02;105338;1257;65690;-47
2023/04/26 08:34:15;;;;;;;15.90;5.10;;;;;;;18.27;49.86;99497.27;107404;1253;60447;-48
2023/04/26 08:36:42;;;;;;;8.90;5.20;;;;;;;18.28;49.89;99494.60;108986;1253;58638;-48
2023/04/26 08:39:11;;;;;;;8.80;4.50;;;;;;;18.26;49.59;99495.25;109058;1253;66390;-47
2023/04/26 08:41:42;;;;;;;14.00;4.50;;;;;;;18.22;49.31;99491.70;108993;1256;62578;-48
2023/04/26 08:44:09;;;;;;;8.10;3.90;;;;;;;18.15;49.38;99495.88;108979;1253;65054;-47
2023/04/26 08:47:05;;;;;;;8.30;4.40;;;;;;;18.11;50.01;99500.06;109112;1253;61510;-48
2023/04/26 08:49:38;;;;;;;7.00;4.50;;;;;;;18.13;50.34;99499.78;105635;1256;60612;-46
2023/04/26 08:52:10;;;;;;;9.60;4.90;;;;;;;18.14;49.90;99502.23;107236;1254;66421;-47
2023/04/26 08:54:38;;;;;;;8.80;4.90;;;;;;;18.14;50.00;99502.11;106200;1254;62585;-47
2023/04/26 08:57:08;;;;;;;10.40;4.50;;;;;;;18.16;50.22;99503.66;104910;1257;64008;-47
2023/04/26 08:59:36;;;;;;;10.40;4.80;;;;;;;18.16;50.43;99504.44;105584;1253;60535;-47
2023/04/26 09:02:04;;;;;;;9.70;5.10;;;;;;;18.13;51.06;99504.86;105386;1257;60435;-53
2023/04/26 09:04:31;;;;;;;9.00;4.90;;;;;;;18.05;51.18;99505.50;105483;1253;66146;-47
2023/04/26 09:06:59;;;;;;;7.60;4.80;;;;;;;17.96;52.07;99508.21;104901;1253;62549;-47
2023/04/26 09:09:27;;;;;;;11.10;5.00;;;;;;;17.90;52.39;99511.31;106653;1254;64886;-48
2023/04/26 09:11:59;;;;;;;8.60;4.80;;;;;;;17.84;52.41;99510.95;105283;1253;60902;-47
2023/04/26 09:14:26;;;;;;;8.30;5.10;;;;;;;17.79;52.81;99515.86;107363;1255;60448;-48
2023/04/26 09:16:53;;;;;;;9.80;4.70;;;;;;;17.73;53.27;99518.84;105244;1253;65623;-46
2023/04/26 09:19:36;;;;;;;8.60;5.40;;;;;;;17.71;53.32;99515.61;105290;1254;64689;-48
2023/04/26 09:22:03;;;;;;;9.20;4.70;;;;;;;17.68;53.05;99513.73;105642;1257;64120;-47
2023/04/26 09:24:47;;;;;;;7.40;5.30;;;;;;;17.63;53.29;99512.77;107297;1254;60451;-47
2023/04/26 09:27:15;;;;;;;8.60;5.40;;;;;;;17.63;53.27;99508.92;106058;1253;60783;-46
2023/04/26 09:30:17;;;;;;;13.00;5.40;;;;;;;17.63;52.98;99512.98;106930;1255;66087;-46
2023/04/26 09:33:03;;;;;;;11.70;6.30;;;;;;;17.62;53.24;99518.58;105348;1257;61734;-46
2023/04/26 09:35:38;;;;;;;9.90;5.60;;;;;;;17.60;53.07;99516.55;107244;1255;64752;-48
2023/04/26 09:38:17;;;;;;;10.10;5.60;;;;;;;17.57;53.01;99519.99;105319;1253;60368;-49
2023/04/26 09:40:46;;;;;;;8.10;5.50;;;;;;;17.53;52.90;99522.94;105407;1254;61152;-46
2023/04/26 09:43:14;;;;;;;7.70;5.20;;;;;;;17.51;52.84;99527.50;105244;1254;65172;-46
2023/04/26 09:46:02;;;;;;;6.40;4.60;;;;;;;17.47;52.82;99527.95;106523;1254;62671;-47
2023/04/26 09:48:31;;;;;;;6.50;4.20;;;;;;;17.44;52.72;99526.83;105280;1253;64548;-48
2023/04/26 09:51:08;;;;;;;8.20;4.70;;;;;;;17.41;52.92;99528.99;108945;1256;58783;-48
2023/04/26 09:53:36;;;;;;;8.60;5.10;;;;;;;17.41;53.21;99530.46;105701;1253;60618;-47
2023/04/26 09:56:10;;;;;;;7.50;4.50;;;;;;;17.43;53.42;99530.20;105627;1254;65200;-47
2023/04/26 09:58:47;;;;;;;10.00;4.70;;;;;;;17.47;53.30;99532.23;106246;1253;62540;-47
2023/04/26 10:01:17;;;;;;;8.20;4.80;;;;;;;17.49;53.22;99528.17;107486;1255;65171;-47
2023/04/26 10:03:45;;;;;;;8.40;5.20;;;;;;;17.53;53.62;99528.95;107641;1253;59123;-47
2023/04/26 10:06:12;;;;;;;7.50;4.40;;;;;;;17.59;54.15;99530.89;105513;1253;60534;-47
2023/04/26 10:08:39;;;;;;;8.40;4.60;;;;;;;17.69;54.41;99532.22;107731;1255;65872;-47
2023/04/26 10:11:10;;;;;;;9.20;5.00;;;;;;;17.80;54.48;99531.30;105200;1254;62295;-47
2023/04/26 10:13:38;;;;;;;8.60;4.90;;;;;;;17.91;54.26;99527.33;109036;1253;65245;-48
2023/04/26 10:16:05;;;;;;;10.40;5.50;;;;;;;18.00;53.69;99528.27;108972;1254;58426;-47
2023/04/26 10:18:33;;;;;;;8.20;5.00;;;;;;;18.08;53.43;99528.38;109071;1253;59808;-48
2023/04/26 10:21:11;;;;;;;8.70;5.00;;;;;;;18.14;53.14;99526.83;109012;1253;65638;-47
2023/04/26 10:23:38;;;;;;;8.00;5.20;;;;;;;18.18;52.80;99526.48;108845;1253;62384;-48
2023/04/26 10:26:05;;;;;;;7.90;5.40;;;;;;;18.22;52.75;99527.42;109005;1252;64831;-47
2023/04/26 10:28:44;;;;;;;8.30;5.20;;;;;;;18.22;52.41;99529.96;108001;1253;61329;-47
2023/04/26 10:31:11;;;;;;;9.70;5.00;;;;;;;18.20;52.33;99530.83;108436;1253;61381;-47
2023/04/26 10:33:38;;;;;;;8.70;4.70;;;;;;;18.15;52.71;99530.85;105335;1258;65966;-48
2023/04/26 10:36:10;;;;;;;8.60;5.00;;;;;;;18.12;52.93;99530.28;105396;1253;62379;-47
2023/04/26 10:38:38;;;;;;;8.80;4.60;;;;;;;18.07;53.20;99528.05;105565;1257;64068;-45
2023/04/26 10:41:29;;;;;;;8.50;5.00;;;;;;;18.02;53.24;99531.84;105394;1253;60582;-48
2023/04/26 10:43:56;;;;;;;10.10;5.80;;;;;;;17.96;53.49;99529.74;109063;1253;58468;-48
2023/04/26 10:46:34;;;;;;;10.80;5.70;;;;;;;17.94;53.58;99528.02;109009;1252;65957;-48
2023/04/26 10:49:14;;;;;;;8.70;5.50;;;;;;;17.95;53.70;99530.16;109042;1253;62379;-48
2023/04/26 10:52:11;;;;;;;8.10;5.40;;;;;;;17.98;53.66;99529.48;109016;1253;65085;-48
2023/04/26 10:55:06;;;;;;;8.10;5.70;;;;;;;18.03;53.63;99530.22;109023;1252;58564;-48
2023/04/26 10:57:46;;;;;;;11.10;5.70;;;;;;;18.12;53.53;99528.04;106472;1253;60595;-48
2023/04/26 11:00:26;;;;;;;8.50;5.60;;;;;;;18.20;53.62;99529.87;105937;1253;66020;-48
2023/04/26 11:03:02;;;;;;;9.20;5.70;;;;;;;18.28;53.27;99531.73;106527;1253;62841;-48
2023/04/26 11:05:46;;;;;;;7.70;5.70;;;;;;;18.36;53.15;99534.27;105725;1253;64860;-47
2023/04/26 11:08:12;;;;;;;8.10;5.40;;;;;;;18.43;53.10;99535.96;105236;1253;61856;-50
2023/04/26 11:10:40;;;;;;;9.80;5.00;;;;;;;18.48;52.55;99532.79;109053;1253;58445;-47
2023/04/26 11:13:07;;;;;;;7.80;5.50;;;;;;;18.49;52.25;99532.19;109031;1253;65335;-48
2023/04/26 11:15:35;;;;;;;9.30;5.50;;;;;;;18.46;52.12;99531.76;108986;1257;63300;-48
2023/04/26 11:18:03;;;;;;;12.00;5.90;;;;;;;18.44;52.37;99536.21;109069;1253;63867;-51
2023/04/26 11:20:31;;;;;;;11.40;5.20;;;;;;;18.45;52.47;99534.95;108828;1253;58462;-47
2023/04/26 11:22:58;;;;;;;10.70;5.60;;;;;;;18.47;52.27;99533.38;105288;1254;59404;-47
2023/04/26 11:25:28;;;;;;;10.30;6.40;;;;;;;18.47;52.36;99534.64;105815;1256;65841;-47
2023/04/26 11:28:01;;;;;;;11.20;6.20;;;;;;;18.48;52.57;99532.30;105846;1253;62566;-47
2023/04/26 11:30:30;;;;;;;8.70;6.40;;;;;;;18.47;52.49;99528.62;106201;1253;64696;-48
2023/04/26 11:33:01;;;;;;;8.90;6.70;;;;;;;18.44;52.42;99531.67;105658;1257;60453;-48
2023/04/26 11:35:28;;;;;;;10.10;6.30;;;;;;;18.41;52.53;99530.39;107474;1256;60496;-49
2023/04/26 11:37:59;;;;;;;9.60;6.10;;;;;;;18.37;52.62;99531.27;105237;1257;66291;-47
2023/04/26 11:40:27;;;;;;;9.60;6.00;;;;;;;18.34;52.97;99531.31;105725;1255;62742;-47
2023/04/26 11:42:59;;;;;;;10.50;6.50;;;;;;;18.30;53.34;99536.48;106755;1257;64989;-47
2023/04/26 11:45:26;;;;;;;10.80;6.30;;;;;;;18.25;53.76;99531.29;108930;1253;58510;-48
2023/04/26 11:47:53;;;;;;;8.90;5.80;;;;;;;18.23;54.16;99535.91;106030;1253;60521;-47
2023/04/26 11:50:22;;;;;;;9.90;6.60;;;;;;;18.25;54.99;99537.15;105227;1258;66315;-46